Wainwright, AK

11:37 AM AKST on February 06, 2016 (GMT -0900)
Wainwright | | Change Station
CLOSE
Current Station
Airport
Location: Wainwright,
Elevation: 39 ft
Nearby Weather Stations
Active Advisory: Winter Weather Advisory

Elev 39 ft 70.64 °N, 159.99 °W | Updated 44 minutes ago

Haze
Haze
-19 °F
Feels Like -45 °F
N
17
Wind Variable Wind from ENE

Today
High -- | Low -- °F
--% Chance of Precip.
Yesterday
High -- | Low -- °F
Precip. -- in
Pressure 30.03 in
Visibility 1.2 miles
Clouds Overcast 200 ft
Windchill -45 °F
Dew Point -25 °F
Humidity 74%
Rainfall 0.00 in
Snow Depth Not available.
11:07 AM 4:41 PM
Waning Crescent, 4% visible
METAR PAWI 061953Z AUTO 07015KT 1 1/4SM HZ OVC002 M28/M32 A3002 RMK AO2 SLP167 T12831317 TSNO
Pressure 30.03 in
Visibility 1.2 miles
Clouds Overcast 200 ft
Windchill -45 °F
Dew Point -25 °F
Humidity 74%
Rainfall 0.00 in
Snow Depth Not available.
11:07 AM 4:41 PM
Waning Crescent, 4% visible
METAR PAWI 061953Z AUTO 07015KT 1 1/4SM HZ OVC002 M28/M32 A3002 RMK AO2 SLP167 T12831317 TSNO

10-Day Weather Forecast

Almanac

Astronomy

Feb. 06, 2016 Rise Set
Actual Time
Civil Twilight
Nautical Twilight
Astronomical Twilight
Moon
Length of Visible Light
Length of Day
Tomorrow will be .
, % of the Moon is Illuminated

Today's Extremes

State Highs State Lows

Community

WunderPhotos

Upload Photos

1,891,046 photos uploaded!

WunderBlog® & News

Nearby

Air Quality

  Air Quality AQ Index Pollutant
Not available.

Snow Depth

Station Depth Elevation

Earthquake Activity

City Distance Mag. Time & Date
Minimum magnitude displayed is 2.5.

Coastal Water Temperatures

Place Temperature

Stations

Nearby Weather Stations

Station Location Temp. Windchill Dew Point Humidity Wind Precip. Elev Updated Type
                   

Watches & Warnings

Winter Weather Advisory
Issued: 5:14 AM AKST Feb. 6, 2016 – National Weather Service

... Winter Weather Advisory in effect until 6 PM akst this
evening...

The National Weather Service in Fairbanks has issued a Winter
Weather Advisory for blowing snow and wind chill... which is in
effect until 6 PM akst this evening.

* Blowing snow... reducing visibility to one half mile or less at
times.

* Winds... east winds with gusts to 45 mph.

* Wind chill... to 55 below.

* Timing... winds will increase this morning causing poor
visibility due to blowing snow. Conditions will gradually
improve tonight.

* Impacts... visibility will be greatly reduced and snow will
accumulate into drifts. Whiteout conditions may occur. Travel
and outdoor activities will be difficult.

Precautionary/preparedness actions...

A Winter Weather Advisory means that one or more winter weather
hazards are expected to cause travel difficulties.